Time;durP1;ratioP1;P1;durP2;ratioP2;P2;SDS_P1;SDS_P2;PMS_P1;PMS_P2;Temp;Humidity;BMP_temperature;BMP_pressure;BME280_temperature;BME280_humidity;BME280_pressure;Samples;Min_cycle;Max_cycle;Signal;HPM_P1;HPM_P2
2023/10/13 00:00:33;;;;;;;39.73;36.37;;;12.60;93.20;;;;;;5112970;28;20201;-91
2023/10/13 00:03:02;;;;;;;38.93;35.20;;;12.50;93.30;;;;;;5112983;28;20544;-91
2023/10/13 00:05:31;;;;;;;40.57;36.97;;;12.60;93.40;;;;;;5114023;28;20280;-90
2023/10/13 00:08:01;;;;;;;41.13;37.37;;;12.60;93.40;;;;;;5113116;28;20165;-90
2023/10/13 00:10:31;;;;;;;40.33;37.40;;;12.60;93.40;;;;;;5113894;28;20201;-91
2023/10/13 00:13:11;;;;;;;43.87;39.83;;;12.60;93.40;;;;;;5112725;28;20213;-91
2023/10/13 00:15:46;;;;;;;48.50;44.17;;;12.70;93.60;;;;;;5112704;28;20194;-90
2023/10/13 00:18:14;;;;;;;27.90;24.73;;;12.70;93.50;;;;;;5112156;28;20535;-90
2023/10/13 00:20:49;;;;;;;27.77;24.47;;;12.80;93.60;;;;;;5114365;28;20193;-89
2023/10/13 00:23:16;;;;;;;43.10;39.70;;;12.70;93.60;;;;;;5113648;28;20197;-90
2023/10/13 00:25:49;;;;;;;43.77;40.07;;;12.70;93.60;;;;;;5112609;28;20200;-91
2023/10/13 00:28:23;;;;;;;31.67;26.07;;;12.70;93.70;;;;;;5112598;28;20158;-90
2023/10/13 00:30:53;;;;;;;30.53;24.30;;;12.80;93.80;;;;;;5112509;28;20649;-90
2023/10/13 00:33:22;;;;;;;28.70;25.60;;;12.80;93.80;;;;;;5112703;28;20238;-90
2023/10/13 00:35:51;;;;;;;28.07;25.27;;;12.80;93.70;;;;;;5112416;28;20197;-90
2023/10/13 00:38:19;;;;;;;31.40;24.57;;;12.80;93.70;;;;;;5112532;28;20174;-91
2023/10/13 00:40:51;;;;;;;28.53;24.93;;;12.80;93.80;;;;;;5112889;28;20558;-91
2023/10/13 00:48:33;;;;;;;30.53;25.47;;;12.80;93.90;;;;;;5114024;27;20653;-91
2023/10/13 00:51:06;;;;;;;29.97;26.03;;;12.80;93.90;;;;;;5112285;28;20178;-91
2023/10/13 00:53:33;;;;;;;34.83;25.60;;;12.80;93.90;;;;;;5112581;28;20166;-91
2023/10/13 00:56:06;;;;;;;32.63;27.37;;;12.80;93.90;;;;;;5113570;28;20201;-90
2023/10/13 00:58:33;;;;;;;32.73;27.43;;;12.90;94.00;;;;;;5112373;28;20163;-91
2023/10/13 01:01:18;;;;;;;39.23;27.50;;;12.90;93.90;;;;;;5113686;28;20253;-91
2023/10/13 01:04:02;;;;;;;32.47;28.23;;;12.80;93.90;;;;;;5113687;28;20151;-91
2023/10/13 01:06:28;;;;;;;34.23;27.83;;;12.90;94.00;;;;;;5112474;28;20162;-91
2023/10/13 01:09:17;;;;;;;34.43;29.50;;;12.90;94.00;;;;;;5112374;28;20323;-91
2023/10/13 01:11:52;;;;;;;35.80;29.37;;;13.00;94.10;;;;;;5112359;28;20167;-90
2023/10/13 01:14:23;;;;;;;44.10;30.37;;;12.90;94.10;;;;;;5112259;28;20201;-91
2023/10/13 01:16:58;;;;;;;43.40;30.63;;;13.00;94.10;;;;;;5112245;28;20170;-91
2023/10/13 01:19:27;;;;;;;52.33;30.63;;;12.90;94.10;;;;;;5112017;28;20200;-91
2023/10/13 01:22:11;;;;;;;46.80;32.30;;;13.00;94.20;;;;;;5111994;28;20178;-91
2023/10/13 01:24:37;;;;;;;48.20;32.20;;;13.00;94.20;;;;;;5111967;28;20580;-92
2023/10/13 01:27:17;;;;;;;44.17;30.80;;;13.00;94.30;;;;;;5111989;28;20180;-91
2023/10/13 01:29:50;;;;;;;42.27;31.77;;;13.00;94.40;;;;;;5114154;28;20253;-91
2023/10/13 01:32:22;;;;;;;43.80;31.50;;;13.00;94.40;;;;;;5116988;28;20189;-91
2023/10/13 01:34:49;;;;;;;49.80;34.40;;;13.00;94.50;;;;;;5115783;28;20229;-91
2023/10/13 01:37:19;;;;;;;56.57;34.80;;;13.00;94.50;;;;;;5115625;28;20170;-91
2023/10/13 01:39:49;;;;;;;43.73;34.60;;;13.20;94.50;;;;;;5115513;28;20197;-91
2023/10/13 01:42:21;;;;;;;51.73;35.47;;;13.10;94.50;;;;;;5115419;28;20170;-91
2023/10/13 01:44:48;;;;;;;50.83;34.97;;;13.10;94.60;;;;;;5115426;28;20228;-91
2023/10/13 01:47:15;;;;;;;54.50;35.97;;;13.10;94.60;;;;;;5116693;28;20173;-91
2023/10/13 01:49:41;;;;;;;61.07;37.67;;;13.20;94.70;;;;;;5116631;28;20265;-91
2023/10/13 01:52:11;;;;;;;62.43;37.97;;;13.20;94.70;;;;;;5116653;27;20174;-91
2023/10/13 01:54:40;;;;;;;63.03;39.30;;;13.20;94.70;;;;;;5116741;28;20194;-91
2023/10/13 01:57:13;;;;;;;67.53;39.33;;;13.20;94.80;;;;;;5116479;28;20234;-91
2023/10/13 01:59:43;;;;;;;63.07;39.40;;;13.20;94.80;;;;;;5115112;28;20186;-90
2023/10/13 02:02:19;;;;;;;56.53;38.73;;;13.30;94.90;;;;;;5116428;28;20142;-91
2023/10/13 02:04:56;;;;;;;61.50;55.07;;;13.30;94.90;;;;;;5116385;28;20190;-91
2023/10/13 02:07:26;;;;;;;68.80;57.33;;;13.20;95.00;;;;;;5115089;28;20210;-91
2023/10/13 02:09:54;;;;;;;68.50;55.97;;;13.20;95.00;;;;;;5115055;28;20637;-91
2023/10/13 02:12:25;;;;;;;72.53;58.17;;;13.30;95.10;;;;;;5116097;28;20166;-91
2023/10/13 02:14:51;;;;;;;79.40;59.80;;;13.30;95.00;;;;;;5115057;28;20213;-91
2023/10/13 02:17:21;;;;;;;74.63;60.57;;;13.30;95.10;;;;;;5114887;28;20170;-91
2023/10/13 02:19:46;;;;;;;71.93;60.47;;;13.40;95.10;;;;;;5115895;28;20657;-91
2023/10/13 02:22:28;;;;;;;81.03;59.73;;;13.30;95.10;;;;;;5115978;28;20169;-91
2023/10/13 02:24:54;;;;;;;77.73;59.70;;;13.40;95.20;;;;;;5114638;28;20196;-91
2023/10/13 02:27:22;;;;;;;75.23;59.17;;;13.40;95.30;;;;;;5114715;28;20178;-90
2023/10/13 02:29:50;;;;;;;77.40;59.17;;;13.40;95.30;;;;;;5114607;28;20253;-91
2023/10/13 02:32:21;;;;;;;66.33;43.57;;;13.40;95.40;;;;;;5114546;28;20185;-91
2023/10/13 02:34:47;;;;;;;68.80;40.97;;;13.50;95.50;;;;;;5114546;28;20236;-91
2023/10/13 02:37:13;;;;;;;82.70;53.53;;;13.50;95.50;;;;;;5115679;28;20612;-91
2023/10/13 02:39:42;;;;;;;80.40;54.40;;;13.50;95.60;;;;;;5114266;28;20233;-91
2023/10/13 02:42:15;;;;;;;83.97;44.63;;;13.60;95.60;;;;;;5113808;28;20239;-90
2023/10/13 02:44:45;;;;;;;82.97;43.50;;;13.60;95.70;;;;;;5114271;28;20222;-91
2023/10/13 02:47:14;;;;;;;93.13;55.90;;;13.70;95.70;;;;;;5114354;28;20174;-91
2023/10/13 02:49:43;;;;;;;100.10;59.80;;;13.70;95.80;;;;;;5114132;28;20323;-90
2023/10/13 02:52:09;;;;;;;106.93;60.80;;;13.70;95.80;;;;;;5114205;28;20174;-91
2023/10/13 02:55:08;;;;;;;89.37;44.83;;;13.70;95.80;;;;;;5114062;28;20280;-91
2023/10/13 02:57:27;;;;;;;85.30;44.53;;;13.80;95.90;;;;;;5114863;28;20305;-91
2023/10/13 02:59:58;;;;;;;87.63;45.80;;;13.80;96.00;;;;;;5113846;28;20732;-91
2023/10/13 03:02:25;;;;;;;90.30;47.00;;;13.80;96.00;;;;;;5113983;28;20192;-90
2023/10/13 03:04:59;;;;;;;90.20;45.92;;;13.90;96.00;;;;;;5113790;28;20630;-91
2023/10/13 03:07:30;;;;;;;91.60;46.87;;;13.90;96.10;;;;;;5113951;28;20196;-92
2023/10/13 03:09:59;;;;;;;92.63;46.80;;;14.00;96.20;;;;;;5114623;28;20208;-91
2023/10/13 03:12:26;;;;;;;90.83;48.77;;;13.90;96.20;;;;;;5113618;28;20181;-91
2023/10/13 03:14:55;;;;;;;82.25;45.35;;;14.00;96.20;;;;;;5113725;28;20201;-90
2023/10/13 03:17:33;;;;;;;87.70;47.80;;;14.00;96.30;;;;;;5113701;28;20523;-90
2023/10/13 03:19:59;;;;;;;82.23;46.37;;;14.00;96.40;;;;;;5114290;28;20185;-90
2023/10/13 03:22:30;;;;;;;89.13;47.80;;;14.00;96.30;;;;;;5115135;28;20178;-91
2023/10/13 03:24:59;;;;;;;83.60;45.55;;;14.10;96.40;;;;;;5113512;28;20190;-90
2023/10/13 03:27:39;;;;;;;68.67;44.23;;;14.10;96.40;;;;;;5113469;28;20174;-90
2023/10/13 03:30:13;;;;;;;72.57;44.10;;;14.10;96.40;;;;;;5114248;28;20158;-90
2023/10/13 03:32:45;;;;;;;61.55;40.25;;;14.20;96.50;;;;;;5114629;28;20207;-90
2023/10/13 03:35:17;;;;;;;64.37;41.37;;;14.20;96.50;;;;;;5113293;28;20198;-91
2023/10/13 03:37:42;;;;;;;63.17;41.60;;;14.20;96.50;;;;;;5113285;28;20541;-92
2023/10/13 03:45:39;;;;;;;76.47;44.47;;;14.30;96.50;;;;;;5114372;28;20545;-90
2023/10/13 03:48:09;;;;;;;68.07;42.83;;;14.30;96.60;;;;;;5114383;28;20146;-90
2023/10/13 03:50:57;;;;;;;71.20;43.85;;;14.30;96.60;;;;;;5112994;28;20200;-90
2023/10/13 03:53:25;;;;;;;73.10;44.10;;;14.30;96.60;;;;;;5113405;28;20146;-91
2023/10/13 03:56:07;;;;;;;70.70;44.40;;;14.40;96.60;;;;;;5114037;28;20683;-90
2023/10/13 03:58:34;;;;;;;65.57;40.90;;;14.40;96.60;;;;;;5112887;28;20547;-90
2023/10/13 04:01:00;;;;;;;62.43;42.70;;;14.50;96.70;;;;;;5112775;28;20718;-90
2023/10/13 04:03:32;;;;;;;67.32;43.45;;;14.50;96.70;;;;;;5112733;28;20170;-91
2023/10/13 04:06:06;;;;;;;63.13;42.00;;;14.50;96.70;;;;;;5114005;28;20189;-91
2023/10/13 04:08:48;;;;;;;60.92;44.20;;;14.60;96.80;;;;;;5114217;28;20211;-90
2023/10/13 04:16:53;;;;;;;61.10;44.28;;;14.70;96.80;;;;;;5114113;28;20164;-91
2023/10/13 04:19:26;;;;;;;64.43;46.20;;;14.70;96.80;;;;;;5112563;28;20197;-91
2023/10/13 04:22:13;;;;;;;68.90;44.00;;;14.80;96.90;;;;;;5112678;28;20261;-90
2023/10/13 04:25:00;;;;;;;63.28;43.85;;;14.80;96.80;;;;;;5112549;28;20576;-91
2023/10/13 04:27:44;;;;;;;67.15;47.67;;;14.80;96.90;;;;;;5113697;28;20180;-90
2023/10/13 04:30:24;;;;;;;71.35;46.75;;;14.80;96.90;;;;;;5112557;28;20181;-91
2023/10/13 04:33:06;;;;;;;66.95;47.05;;;14.80;96.90;;;;;;5112492;28;20163;-91
2023/10/13 04:35:38;;;;;;;72.35;47.70;;;14.90;96.90;;;;;;5112420;28;20586;-92
2023/10/13 04:38:18;;;;;;;71.32;48.75;;;14.90;96.90;;;;;;5112556;28;20253;-91
2023/10/13 04:40:59;;;;;;;74.45;48.00;;;14.90;96.90;;;;;;5112362;28;20182;-91
2023/10/13 04:43:54;;;;;;;76.93;50.05;;;15.00;97.00;;;;;;5113561;28;20150;-91
2023/10/13 04:46:35;;;;;;;80.28;51.10;;;15.00;97.00;;;;;;5113541;27;20172;-92
2023/10/13 04:49:09;;;;;;;76.50;49.83;;;15.10;97.00;;;;;;5112567;28;20166;-90
2023/10/13 04:51:58;;;;;;;80.03;52.08;;;15.10;97.00;;;;;;5112572;28;20165;-92
2023/10/13 04:54:33;;;;;;;79.78;52.50;;;15.20;97.00;;;;;;5113999;28;20692;-91
2023/10/13 05:05:45;;;;;;;97.40;71.22;;;15.20;97.10;;;;;;5116438;28;20189;-89
2023/10/13 05:49:34;;;;;;;80.80;53.95;;;15.80;96.90;;;;;;5117068;27;20183;-91
2023/10/13 05:51:59;;;;;;;81.40;53.70;;;15.80;96.90;;;;;;5116386;28;20257;-90
2023/10/13 06:30:12;;;;;;;75.05;54.35;;;16.00;96.50;;;;;;5116144;28;20164;-90
2023/10/13 06:32:39;;;;;;;71.72;54.58;;;16.00;96.40;;;;;;5114595;28;20251;-91
2023/10/13 06:35:09;;;;;;;80.22;56.78;;;16.00;96.40;;;;;;5115464;28;20657;-91
2023/10/13 06:37:41;;;;;;;75.72;53.88;;;16.00;96.40;;;;;;5115689;28;20243;-91
2023/10/13 06:43:11;;;;;;;63.63;49.58;;;16.00;96.40;;;;;;5116190;28;20526;-90
2023/10/13 06:45:37;;;;;;;68.97;52.72;;;16.00;96.40;;;;;;5114401;28;20742;-89
2023/10/13 06:48:04;;;;;;;64.70;50.15;;;16.10;96.40;;;;;;5114661;28;20182;-90
2023/10/13 06:50:38;;;;;;;61.58;50.28;;;16.10;96.30;;;;;;5114916;28;20231;-91
2023/10/13 06:53:04;;;;;;;69.90;56.00;;;16.10;96.30;;;;;;5114457;28;20252;-91
2023/10/13 06:55:35;;;;;;;70.63;54.53;;;16.10;96.40;;;;;;5115665;28;20234;-90
2023/10/13 06:58:01;;;;;;;61.78;52.00;;;16.10;96.30;;;;;;5114799;28;20197;-91
2023/10/13 07:00:29;;;;;;;67.25;54.13;;;16.20;96.30;;;;;;5115549;28;20258;-91
2023/10/13 07:03:05;;;;;;;74.72;56.63;;;16.10;96.30;;;;;;5113935;28;20174;-90
2023/10/13 07:05:41;;;;;;;64.35;54.50;;;16.20;96.30;;;;;;5115146;28;20189;-90
2023/10/13 07:08:07;;;;;;;68.90;56.92;;;16.20;96.30;;;;;;5115168;28;20153;-91
2023/10/13 07:10:44;;;;;;;70.70;56.47;;;16.20;96.30;;;;;;5113876;28;20196;-91
2023/10/13 07:13:10;;;;;;;70.68;56.42;;;16.20;96.30;;;;;;5113832;28;20177;-91
2023/10/13 07:15:44;;;;;;;71.97;57.30;;;16.20;96.30;;;;;;5113703;28;20207;-91
2023/10/13 07:18:13;;;;;;;70.53;57.65;;;16.20;96.30;;;;;;5113697;28;20253;-90
2023/10/13 07:20:46;;;;;;;74.15;56.45;;;16.20;96.30;;;;;;5114778;28;20247;-91
2023/10/13 07:23:17;;;;;;;66.32;56.08;;;16.20;96.30;;;;;;5113770;28;20166;-91
2023/10/13 07:25:54;;;;;;;72.90;55.65;;;16.20;96.30;;;;;;5113671;28;20190;-92
2023/10/13 07:28:20;;;;;;;71.88;58.30;;;16.20;96.30;;;;;;5113319;28;20200;-90
2023/10/13 07:33:21;;;;;;;75.70;59.35;;;16.20;96.30;;;;;;5115057;28;20154;-91
2023/10/13 07:36:15;;;;;;;72.03;59.58;;;16.20;96.40;;;;;;5114548;28;20200;-92
2023/10/13 07:38:49;;;;;;;68.70;57.40;;;16.20;96.40;;;;;;5113304;28;20158;-90
2023/10/13 07:41:17;;;;;;;68.45;57.15;;;16.20;96.40;;;;;;5113373;28;20194;-91
2023/10/13 07:43:44;;;;;;;63.17;55.05;;;16.20;96.40;;;;;;5114486;28;20227;-91
2023/10/13 07:46:12;;;;;;;71.75;57.65;;;16.20;96.50;;;;;;5113165;28;20225;-91
2023/10/13 07:48:38;;;;;;;70.80;56.97;;;16.20;96.50;;;;;;5114377;28;20220;-90
2023/10/13 07:51:11;;;;;;;61.72;55.25;;;16.20;96.50;;;;;;5114327;28;20168;-90
2023/10/13 07:53:40;;;;;;;60.03;53.47;;;16.20;96.50;;;;;;5113301;28;20547;-90
2023/10/13 07:56:08;;;;;;;59.92;53.42;;;16.20;96.50;;;;;;5113099;28;20650;-90
2023/10/13 07:58:34;;;;;;;58.67;52.72;;;16.20;96.50;;;;;;5113071;28;20195;-90
2023/10/13 08:01:16;;;;;;;54.35;47.05;;;16.20;96.50;;;;;;5112859;28;20177;-90
2023/10/13 08:03:45;;;;;;;54.65;49.05;;;16.20;96.50;;;;;;5113822;28;20569;-91
2023/10/13 08:08:39;;;;;;;55.70;50.10;;;16.30;96.50;;;;;;5114391;28;20177;-91
2023/10/13 08:11:12;;;;;;;51.80;46.42;;;16.30;96.50;;;;;;5114244;28;20173;-90
2023/10/13 08:13:46;;;;;;;51.83;46.60;;;16.30;96.50;;;;;;5113798;28;20173;-90
2023/10/13 08:16:20;;;;;;;51.05;45.83;;;16.30;96.50;;;;;;5113173;28;20186;-90
2023/10/13 08:18:50;;;;;;;51.17;46.63;;;16.30;96.40;;;;;;5112986;28;20548;-90
2023/10/13 08:21:31;;;;;;;46.08;41.83;;;16.30;96.40;;;;;;5112691;28;20174;-90
2023/10/13 08:23:58;;;;;;;43.88;39.75;;;16.20;96.40;;;;;;5113726;28;20158;-90
2023/10/13 08:32:07;;;;;;;40.72;37.30;;;16.20;96.30;;;;;;5114129;28;20158;-90
2023/10/13 08:34:59;;;;;;;43.55;39.30;;;16.20;96.30;;;;;;5113731;27;20229;-92
2023/10/13 08:38:17;;;;;;;41.05;37.78;;;16.10;96.30;;;;;;5112610;28;20178;-93
2023/10/13 08:48:08;;;;;;;39.67;36.67;;;16.10;96.30;;;;;;5117947;28;20246;-92
2023/10/13 08:50:47;;;;;;;36.70;33.78;;;16.20;96.30;;;;;;5116764;28;20154;-90
2023/10/13 08:53:28;;;;;;;39.03;35.97;;;16.20;96.40;;;;;;5116665;28;20162;-91
2023/10/13 09:07:15;;;;;;;50.45;46.88;;;16.20;96.50;;;;;;5117843;28;20162;-91
2023/10/13 09:13:00;;;;;;;51.65;48.00;;;16.40;96.40;;;;;;5118147;28;20254;-90
2023/10/13 09:18:42;;;;;;;53.88;50.03;;;16.60;96.40;;;;;;5117731;28;20174;-91
2023/10/13 09:23:27;;;;;;;54.83;50.50;;;16.70;96.20;;;;;;5117592;28;20165;-91
2023/10/13 09:25:53;;;;;;;38.63;35.47;;;16.70;96.10;;;;;;5115905;28;20190;-91
2023/10/13 09:28:22;;;;;;;38.30;34.70;;;16.80;95.90;;;;;;5115926;28;20181;-91
2023/10/13 09:30:48;;;;;;;55.42;51.45;;;16.80;95.60;;;;;;5117283;28;20169;-91
2023/10/13 09:33:28;;;;;;;56.83;52.30;;;16.90;95.40;;;;;;5115895;28;20265;-91
2023/10/13 09:35:54;;;;;;;38.10;35.08;;;17.00;95.20;;;;;;5117356;28;20217;-91
2023/10/13 09:38:20;;;;;;;39.10;35.70;;;17.00;95.10;;;;;;5115791;28;20208;-91
2023/10/13 09:40:49;;;;;;;41.17;37.88;;;17.00;95.00;;;;;;5116757;28;20665;-90
2023/10/13 09:43:17;;;;;;;53.08;48.45;;;17.10;94.80;;;;;;5115986;28;20173;-90
2023/10/13 09:48:36;;;;;;;33.83;31.08;;;17.00;94.70;;;;;;5117228;28;20591;-90
2023/10/13 09:51:06;;;;;;;35.20;32.25;;;16.90;94.40;;;;;;5116562;28;20173;-90
2023/10/13 09:53:34;;;;;;;35.50;32.13;;;16.90;94.30;;;;;;5115552;28;20629;-92
2023/10/13 09:56:14;;;;;;;33.80;30.63;;;16.90;93.60;;;;;;5116570;28;20684;-91
2023/10/13 09:58:51;;;;;;;33.50;30.80;;;16.90;93.60;;;;;;5115257;28;20165;-90
2023/10/13 10:01:31;;;;;;;33.25;30.08;;;16.90;93.80;;;;;;5115229;28;20158;-90
2023/10/13 10:04:23;;;;;;;32.95;30.48;;;16.90;93.80;;;;;;5115177;28;20199;-90
2023/10/13 10:06:56;;;;;;;34.10;31.30;;;16.80;93.90;;;;;;5115094;28;20227;-91
2023/10/13 10:09:36;;;;;;;33.88;31.15;;;16.80;93.90;;;;;;5115080;28;20353;-90
2023/10/13 10:12:18;;;;;;;33.47;30.27;;;16.70;93.80;;;;;;5116234;28;20158;-91
2023/10/13 10:15:06;;;;;;;33.38;30.30;;;16.70;93.80;;;;;;5116409;28;20190;-91
2023/10/13 10:17:42;;;;;;;31.25;28.60;;;16.70;93.70;;;;;;5116148;28;20166;-91
2023/10/13 10:20:15;;;;;;;31.45;28.88;;;16.80;93.90;;;;;;5114958;28;20194;-90
2023/10/13 10:22:47;;;;;;;31.23;28.08;;;16.80;94.00;;;;;;5115680;28;20154;-90
2023/10/13 10:25:25;;;;;;;31.08;27.80;;;16.90;93.90;;;;;;5114635;28;20190;-91
2023/10/13 10:28:09;;;;;;;31.38;28.48;;;17.00;94.00;;;;;;5115948;28;20150;-92
2023/10/13 10:30:38;;;;;;;30.60;28.08;;;17.00;93.80;;;;;;5114645;28;20162;-90
2023/10/13 10:33:12;;;;;;;29.75;27.13;;;17.00;94.00;;;;;;5115093;28;20205;-89
2023/10/13 10:35:42;;;;;;;30.38;27.58;;;17.00;94.00;;;;;;5116649;28;20273;-91
2023/10/13 10:38:16;;;;;;;30.85;27.80;;;17.00;93.90;;;;;;5116272;28;20150;-91
2023/10/13 10:40:56;;;;;;;32.88;28.70;;;17.10;93.80;;;;;;5115557;28;20178;-90
2023/10/13 10:43:42;;;;;;;30.17;27.63;;;17.20;93.80;;;;;;5115010;28;20166;-91
2023/10/13 10:46:25;;;;;;;29.95;26.92;;;17.20;93.80;;;;;;5114209;28;20198;-90
2023/10/13 10:48:56;;;;;;;32.97;29.30;;;17.30;93.70;;;;;;5114455;28;20264;-90
2023/10/13 10:51:22;;;;;;;30.88;28.30;;;17.40;93.70;;;;;;5114382;28;20691;-89
2023/10/13 10:53:50;;;;;;;31.33;28.55;;;17.50;93.70;;;;;;5115367;28;20510;-90
2023/10/13 10:56:23;;;;;;;30.42;27.92;;;17.50;93.40;;;;;;5114145;28;20210;-88
2023/10/13 10:58:54;;;;;;;31.25;28.27;;;17.60;93.50;;;;;;5114070;28;20170;-88
2023/10/13 11:01:21;;;;;;;30.38;27.60;;;17.70;93.30;;;;;;5113905;28;20159;-92
2023/10/13 11:03:57;;;;;;;32.63;29.90;;;17.70;93.20;;;;;;5113916;28;20174;-90
2023/10/13 11:06:26;;;;;;;31.75;28.98;;;17.80;93.30;;;;;;5115979;28;20158;-92
2023/10/13 11:09:03;;;;;;;34.58;31.65;;;17.80;93.20;;;;;;5114207;28;20174;-91
2023/10/13 11:11:36;;;;;;;34.22;31.33;;;17.80;93.10;;;;;;5113768;28;20166;-91
2023/10/13 11:14:14;;;;;;;33.42;30.77;;;17.80;93.20;;;;;;5113652;28;20170;-90
2023/10/13 11:16:50;;;;;;;29.92;27.48;;;17.90;93.10;;;;;;5113843;28;20158;-90
2023/10/13 11:19:25;;;;;;;33.30;30.48;;;18.00;93.20;;;;;;5113702;28;20201;-90
2023/10/13 11:21:53;;;;;;;31.15;28.67;;;18.00;93.10;;;;;;5114893;28;20149;-91
2023/10/13 11:24:21;;;;;;;33.33;30.73;;;18.10;93.00;;;;;;5114918;28;20185;-90
2023/10/13 11:26:50;;;;;;;31.88;29.42;;;18.10;92.90;;;;;;5113669;28;20181;-91
2023/10/13 11:29:30;;;;;;;34.15;30.77;;;18.20;93.00;;;;;;5114992;28;20248;-91
2023/10/13 11:31:59;;;;;;;33.55;30.75;;;18.20;93.00;;;;;;5113715;28;20235;-90
2023/10/13 11:34:25;;;;;;;33.80;31.10;;;18.20;93.00;;;;;;5113618;28;20190;-90
2023/10/13 11:36:51;;;;;;;35.10;31.83;;;18.30;92.80;;;;;;5113498;28;20181;-90
2023/10/13 11:39:25;;;;;;;33.20;30.38;;;18.40;92.90;;;;;;5114622;28;20186;-90
2023/10/13 11:41:53;;;;;;;33.92;30.65;;;18.50;92.50;;;;;;5114999;28;20146;-90
2023/10/13 11:49:17;;;;;;;37.00;33.58;;;18.90;91.20;;;;;;5114486;28;20585;-90
2023/10/13 11:51:48;;;;;;;35.58;32.70;;;18.90;91.50;;;;;;5113075;28;20720;-90
2023/10/13 11:54:18;;;;;;;37.25;33.90;;;19.10;91.20;;;;;;5113702;28;20242;-91
2023/10/13 11:56:44;;;;;;;35.60;32.88;;;19.30;90.90;;;;;;5113029;28;20219;-91
2023/10/13 11:59:24;;;;;;;37.97;34.55;;;19.50;90.50;;;;;;5112896;28;20194;-90
2023/10/13 12:07:47;;;;;;;37.72;34.42;;;19.50;90.10;;;;;;5112158;28;20610;-90
2023/10/13 12:10:32;;;;;;;36.60;33.67;;;19.50;90.50;;;;;;5112519;28;20587;-90
2023/10/13 12:13:05;;;;;;;35.00;32.28;;;19.50;90.50;;;;;;5113077;28;20209;-89
2023/10/13 12:15:36;;;;;;;36.63;33.20;;;19.50;90.40;;;;;;5112348;28;20194;-90
2023/10/13 12:18:03;;;;;;;35.13;31.45;;;19.50;89.90;;;;;;5112572;28;20562;-90
2023/10/13 12:20:36;;;;;;;35.53;31.70;;;19.50;89.90;;;;;;5112591;28;20193;-89
2023/10/13 12:23:15;;;;;;;35.03;31.73;;;19.40;89.10;;;;;;5113835;28;20150;-90
2023/10/13 12:28:26;;;;;;;35.42;32.65;;;19.50;88.50;;;;;;5114245;28;20234;-90
2023/10/13 12:30:53;;;;;;;33.03;30.15;;;19.50;88.50;;;;;;5112359;28;20189;-90
2023/10/13 12:33:27;;;;;;;34.05;30.77;;;19.50;88.20;;;;;;5112669;28;20660;-90
2023/10/13 12:49:49;;;;;;;34.17;31.05;;;19.80;87.10;;;;;;5113852;28;20210;-90
2023/10/13 12:52:34;;;;;;;34.58;29.83;;;19.90;86.90;;;;;;5112952;28;20173;-90
2023/10/13 12:55:06;;;;;;;33.65;30.30;;;20.00;86.10;;;;;;5113043;28;20201;-89
2023/10/13 12:57:32;;;;;;;32.47;29.55;;;20.10;84.80;;;;;;5112978;28;20194;-90
2023/10/13 12:59:58;;;;;;;33.50;30.70;;;20.30;84.80;;;;;;5113624;28;20205;-90
2023/10/13 13:02:25;;;;;;;34.47;31.05;;;20.30;84.90;;;;;;5113751;28;20162;-88
2023/10/13 13:04:56;;;;;;;32.15;28.50;;;20.30;84.60;;;;;;5113656;28;20587;-92
2023/10/13 13:07:29;;;;;;;34.78;29.15;;;20.30;84.90;;;;;;5112713;28;20581;-91
2023/10/13 13:09:58;;;;;;;33.20;29.88;;;20.20;85.30;;;;;;5114778;28;20640;-90
2023/10/13 13:12:24;;;;;;;35.05;28.30;;;20.30;84.70;;;;;;5113465;28;20170;-90
2023/10/13 13:14:54;;;;;;;30.80;27.92;;;20.30;83.40;;;;;;5112116;28;20222;-90
2023/10/13 13:17:20;;;;;;;33.47;29.83;;;20.10;84.90;;;;;;5112146;28;20169;-90
2023/10/13 13:19:46;;;;;;;32.97;29.48;;;19.90;85.60;;;;;;5112003;28;20198;-91
2023/10/13 13:22:11;;;;;;;31.77;28.63;;;19.70;86.60;;;;;;5113819;28;20664;-90
2023/10/13 13:24:44;;;;;;;31.02;28.13;;;19.70;86.70;;;;;;5112372;28;20197;-89
2023/10/13 13:27:16;;;;;;;31.33;27.92;;;19.70;87.40;;;;;;5117240;27;20629;-92
2023/10/13 13:29:42;;;;;;;31.58;28.30;;;19.70;86.80;;;;;;5115910;28;20268;-90
2023/10/13 13:32:17;;;;;;;30.30;27.10;;;20.00;84.50;;;;;;5115717;28;20676;-89
2023/10/13 13:34:44;;;;;;;30.42;27.63;;;20.00;85.00;;;;;;5116078;28;20197;-89
2023/10/13 13:37:12;;;;;;;30.30;27.25;;;20.00;85.40;;;;;;5115873;28;20176;-90
2023/10/13 13:39:43;;;;;;;30.63;27.48;;;20.00;85.80;;;;;;5115601;28;20250;-90
2023/10/13 13:42:09;;;;;;;31.38;28.20;;;20.00;86.30;;;;;;5116941;28;20228;-91
2023/10/13 13:44:38;;;;;;;30.27;27.67;;;19.90;86.40;;;;;;5115568;28;20190;-91
2023/10/13 13:47:11;;;;;;;30.50;27.35;;;19.90;86.00;;;;;;5115735;28;20664;-90
2023/10/13 13:49:40;;;;;;;38.83;27.92;;;20.00;86.50;;;;;;5115601;28;20170;-90
2023/10/13 13:52:09;;;;;;;29.83;26.50;;;19.90;86.10;;;;;;5115368;28;20554;-91
2023/10/13 13:54:35;;;;;;;32.10;27.35;;;20.00;86.10;;;;;;5116523;28;20190;-90
2023/10/13 13:57:01;;;;;;;29.77;26.50;;;20.00;85.80;;;;;;5116355;27;20649;-90
2023/10/13 13:59:26;;;;;;;29.65;26.23;;;20.10;84.70;;;;;;5116404;28;20190;-91
2023/10/13 14:01:52;;;;;;;29.95;26.83;;;20.10;84.90;;;;;;5115178;28;20177;-90
2023/10/13 14:04:18;;;;;;;28.05;25.30;;;20.00;85.90;;;;;;5115069;28;20186;-90
2023/10/13 14:06:44;;;;;;;28.17;25.83;;;19.90;86.00;;;;;;5115046;28;20174;-89
2023/10/13 14:09:15;;;;;;;28.27;26.02;;;19.90;86.00;;;;;;5116292;28;20170;-88
2023/10/13 14:16:51;;;;;;;30.05;26.83;;;19.70;86.60;;;;;;5116512;28;20174;-90
2023/10/13 14:19:28;;;;;;;30.42;27.30;;;19.60;86.60;;;;;;5114857;28;20197;-90
2023/10/13 14:21:59;;;;;;;29.90;26.67;;;19.80;85.30;;;;;;5115017;28;20169;-90
2023/10/13 14:24:33;;;;;;;27.27;24.65;;;19.70;85.20;;;;;;5114818;28;20661;-90
2023/10/13 14:27:07;;;;;;;31.70;25.50;;;19.70;84.90;;;;;;5115946;28;20150;-91
2023/10/13 14:29:33;;;;;;;26.77;24.23;;;19.70;85.10;;;;;;5115660;28;20166;-89
2023/10/13 14:31:59;;;;;;;29.90;26.73;;;19.70;84.80;;;;;;5114681;28;20178;-90
2023/10/13 14:34:26;;;;;;;30.05;26.88;;;19.70;85.40;;;;;;5114503;28;20192;-90
2023/10/13 14:36:51;;;;;;;35.35;26.77;;;19.60;85.70;;;;;;5113615;28;20560;-90
2023/10/13 14:39:20;;;;;;;29.35;26.60;;;19.60;85.60;;;;;;5115655;28;20308;-90
2023/10/13 14:41:47;;;;;;;33.70;26.17;;;19.60;85.70;;;;;;5114511;28;20716;-89
2023/10/13 14:44:16;;;;;;;37.08;26.48;;;19.60;85.30;;;;;;5115499;28;20182;-90
2023/10/13 14:46:42;;;;;;;29.10;26.33;;;19.60;85.20;;;;;;5115624;28;20231;-90
2023/10/13 14:49:08;;;;;;;35.88;26.25;;;19.60;85.10;;;;;;5114306;28;20170;-89
2023/10/13 14:51:33;;;;;;;39.80;27.42;;;19.60;85.40;;;;;;5114227;28;20234;-89
2023/10/13 14:53:59;;;;;;;28.95;26.33;;;19.60;85.20;;;;;;5115566;28;20543;-90
2023/10/13 14:56:29;;;;;;;34.20;27.73;;;19.60;84.90;;;;;;5115215;28;20189;-89
2023/10/13 14:58:54;;;;;;;30.98;26.65;;;19.60;85.40;;;;;;5115219;28;20588;-89
2023/10/13 15:01:22;;;;;;;30.13;27.10;;;19.60;85.40;;;;;;5114073;28;20222;-89
2023/10/13 15:03:50;;;;;;;30.65;27.17;;;19.50;85.20;;;;;;5113989;28;20553;-89
2023/10/13 15:06:28;;;;;;;30.25;26.45;;;19.70;84.60;;;;;;5115138;28;20185;-90
2023/10/13 15:08:55;;;;;;;29.77;26.58;;;19.70;84.40;;;;;;5113906;28;20162;-90
2023/10/13 15:11:26;;;;;;;37.13;26.80;;;19.70;84.70;;;;;;5114828;28;20232;-90
2023/10/13 15:13:52;;;;;;;29.55;26.58;;;19.60;85.00;;;;;;5113964;28;20158;-90
2023/10/13 15:16:20;;;;;;;29.42;26.27;;;19.70;84.50;;;;;;5113911;28;20211;-90
2023/10/13 15:18:46;;;;;;;28.50;25.40;;;19.70;84.00;;;;;;5114301;28;20174;-92
2023/10/13 15:21:34;;;;;;;28.80;25.90;;;19.70;84.00;;;;;;5113887;28;20217;-91
2023/10/13 15:24:04;;;;;;;28.88;25.95;;;19.80;83.60;;;;;;5118240;28;20150;-91
2023/10/13 15:26:30;;;;;;;27.98;25.15;;;19.90;83.20;;;;;;5116479;28;20170;-91
2023/10/13 15:28:57;;;;;;;26.00;23.42;;;20.00;82.40;;;;;;5113956;28;20174;-89
2023/10/13 15:31:27;;;;;;;30.83;26.60;;;20.00;82.20;;;;;;5113741;28;20178;-89
2023/10/13 15:33:55;;;;;;;26.40;23.77;;;20.10;82.20;;;;;;5114567;28;20157;-88
2023/10/13 15:36:24;;;;;;;33.78;26.70;;;20.00;82.70;;;;;;5113464;28;20261;-90
2023/10/13 15:38:51;;;;;;;28.73;25.75;;;20.00;81.90;;;;;;5113395;28;20265;-90
2023/10/13 15:41:28;;;;;;;28.42;25.40;;;20.00;82.20;;;;;;5113422;28;20208;-87
2023/10/13 15:43:54;;;;;;;26.85;24.50;;;19.90;82.10;;;;;;5114797;28;20215;-87
2023/10/13 15:46:21;;;;;;;37.00;33.25;;;19.90;82.00;;;;;;5113315;28;20200;-87